sensor_id;sensor_type;location;lat;lon;timestamp;P1;durP1;ratioP1;P2;durP2;ratioP2
73100;SDS011;61288;53.446;-2.266;2024-01-16T00:01:07;19.70;;;6.25;;
73100;SDS011;61288;53.446;-2.266;2024-01-16T00:03:32;19.10;;;6.53;;
73100;SDS011;61288;53.446;-2.266;2024-01-16T00:05:58;17.17;;;6.05;;
73100;SDS011;61288;53.446;-2.266;2024-01-16T00:08:24;17.73;;;6.95;;
73100;SDS011;61288;53.446;-2.266;2024-01-16T00:10:50;18.67;;;5.38;;
73100;SDS011;61288;53.446;-2.266;2024-01-16T00:13:15;18.45;;;5.82;;
73100;SDS011;61288;53.446;-2.266;2024-01-16T00:15:44;16.73;;;5.65;;
73100;SDS011;61288;53.446;-2.266;2024-01-16T00:18:09;18.00;;;5.63;;
73100;SDS011;61288;53.446;-2.266;2024-01-16T00:20:35;15.18;;;5.82;;
73100;SDS011;61288;53.446;-2.266;2024-01-16T00:23:00;17.67;;;5.30;;
73100;SDS011;61288;53.446;-2.266;2024-01-16T00:25:26;20.02;;;5.18;;
73100;SDS011;61288;53.446;-2.266;2024-01-16T00:27:52;14.45;;;5.82;;
73100;SDS011;61288;53.446;-2.266;2024-01-16T00:33:15;14.88;;;4.97;;
73100;SDS011;61288;53.446;-2.266;2024-01-16T00:35:41;16.60;;;4.95;;
73100;SDS011;61288;53.446;-2.266;2024-01-16T00:38:07;15.77;;;5.45;;
73100;SDS011;61288;53.446;-2.266;2024-01-16T00:40:33;17.88;;;6.32;;
73100;SDS011;61288;53.446;-2.266;2024-01-16T00:42:58;15.63;;;5.13;;
73100;SDS011;61288;53.446;-2.266;2024-01-16T00:45:24;15.77;;;5.28;;
73100;SDS011;61288;53.446;-2.266;2024-01-16T00:47:49;15.35;;;5.45;;
73100;SDS011;61288;53.446;-2.266;2024-01-16T00:50:15;16.88;;;5.88;;
73100;SDS011;61288;53.446;-2.266;2024-01-16T00:52:40;18.73;;;5.53;;
73100;SDS011;61288;53.446;-2.266;2024-01-16T00:55:06;19.92;;;6.38;;
73100;SDS011;61288;53.446;-2.266;2024-01-16T00:57:31;16.40;;;6.05;;
73100;SDS011;61288;53.446;-2.266;2024-01-16T00:59:57;16.67;;;5.13;;
73100;SDS011;61288;53.446;-2.266;2024-01-16T01:02:23;16.92;;;5.53;;
73100;SDS011;61288;53.446;-2.266;2024-01-16T01:04:48;15.00;;;5.32;;
73100;SDS011;61288;53.446;-2.266;2024-01-16T01:07:14;16.20;;;5.90;;
73100;SDS011;61288;53.446;-2.266;2024-01-16T01:09:40;16.30;;;5.68;;
73100;SDS011;61288;53.446;-2.266;2024-01-16T01:12:06;16.75;;;5.75;;
73100;SDS011;61288;53.446;-2.266;2024-01-16T01:14:32;19.80;;;5.65;;
73100;SDS011;61288;53.446;-2.266;2024-01-16T01:16:57;16.85;;;5.70;;
73100;SDS011;61288;53.446;-2.266;2024-01-16T01:19:24;21.08;;;5.60;;
73100;SDS011;61288;53.446;-2.266;2024-01-16T01:21:50;14.90;;;5.22;;
73100;SDS011;61288;53.446;-2.266;2024-01-16T01:24:15;14.30;;;4.70;;
73100;SDS011;61288;53.446;-2.266;2024-01-16T01:26:44;15.90;;;5.80;;
73100;SDS011;61288;53.446;-2.266;2024-01-16T01:29:10;13.85;;;5.10;;
73100;SDS011;61288;53.446;-2.266;2024-01-16T01:31:35;14.80;;;5.80;;
73100;SDS011;61288;53.446;-2.266;2024-01-16T01:34:01;20.63;;;5.55;;
73100;SDS011;61288;53.446;-2.266;2024-01-16T01:36:26;15.15;;;5.05;;
73100;SDS011;61288;53.446;-2.266;2024-01-16T01:38:53;16.27;;;5.18;;
73100;SDS011;61288;53.446;-2.266;2024-01-16T01:41:18;18.25;;;5.50;;
73100;SDS011;61288;53.446;-2.266;2024-01-16T01:43:44;20.35;;;5.18;;
73100;SDS011;61288;53.446;-2.266;2024-01-16T01:46:10;15.75;;;5.93;;
73100;SDS011;61288;53.446;-2.266;2024-01-16T01:48:41;15.40;;;5.22;;
73100;SDS011;61288;53.446;-2.266;2024-01-16T01:51:09;16.75;;;5.45;;
73100;SDS011;61288;53.446;-2.266;2024-01-16T01:53:35;15.98;;;5.68;;
73100;SDS011;61288;53.446;-2.266;2024-01-16T01:56:03;18.85;;;5.82;;
73100;SDS011;61288;53.446;-2.266;2024-01-16T01:58:32;14.15;;;5.07;;
73100;SDS011;61288;53.446;-2.266;2024-01-16T02:01:02;16.52;;;5.32;;
73100;SDS011;61288;53.446;-2.266;2024-01-16T02:03:32;13.65;;;5.30;;
73100;SDS011;61288;53.446;-2.266;2024-01-16T02:06:04;14.65;;;5.82;;
73100;SDS011;61288;53.446;-2.266;2024-01-16T02:08:30;16.00;;;5.47;;
73100;SDS011;61288;53.446;-2.266;2024-01-16T02:10:57;13.77;;;4.97;;
73100;SDS011;61288;53.446;-2.266;2024-01-16T02:13:23;18.23;;;5.18;;
73100;SDS011;61288;53.446;-2.266;2024-01-16T02:15:49;14.73;;;5.25;;
73100;SDS011;61288;53.446;-2.266;2024-01-16T02:18:15;14.30;;;4.88;;
73100;SDS011;61288;53.446;-2.266;2024-01-16T02:20:42;13.85;;;4.88;;
73100;SDS011;61288;53.446;-2.266;2024-01-16T02:23:08;13.50;;;4.68;;
73100;SDS011;61288;53.446;-2.266;2024-01-16T02:25:35;15.73;;;4.97;;
73100;SDS011;61288;53.446;-2.266;2024-01-16T02:28:01;13.60;;;5.47;;
73100;SDS011;61288;53.446;-2.266;2024-01-16T02:30:28;15.50;;;4.90;;
73100;SDS011;61288;53.446;-2.266;2024-01-16T02:32:53;14.55;;;5.22;;
73100;SDS011;61288;53.446;-2.266;2024-01-16T02:35:19;13.77;;;4.68;;
73100;SDS011;61288;53.446;-2.266;2024-01-16T02:37:44;12.98;;;4.63;;
73100;SDS011;61288;53.446;-2.266;2024-01-16T02:40:11;15.63;;;5.43;;
73100;SDS011;61288;53.446;-2.266;2024-01-16T02:42:37;15.85;;;5.55;;
73100;SDS011;61288;53.446;-2.266;2024-01-16T02:45:04;14.52;;;5.47;;
73100;SDS011;61288;53.446;-2.266;2024-01-16T02:47:30;16.63;;;5.15;;
73100;SDS011;61288;53.446;-2.266;2024-01-16T02:49:56;16.05;;;5.28;;
73100;SDS011;61288;53.446;-2.266;2024-01-16T02:52:22;15.77;;;5.07;;
73100;SDS011;61288;53.446;-2.266;2024-01-16T02:54:47;13.07;;;4.93;;
73100;SDS011;61288;53.446;-2.266;2024-01-16T02:57:13;13.20;;;4.60;;
73100;SDS011;61288;53.446;-2.266;2024-01-16T02:59:38;15.45;;;5.10;;
73100;SDS011;61288;53.446;-2.266;2024-01-16T03:02:04;13.50;;;5.38;;
73100;SDS011;61288;53.446;-2.266;2024-01-16T03:04:29;12.88;;;4.75;;
73100;SDS011;61288;53.446;-2.266;2024-01-16T03:06:55;15.15;;;5.07;;
73100;SDS011;61288;53.446;-2.266;2024-01-16T03:09:21;14.55;;;4.93;;
73100;SDS011;61288;53.446;-2.266;2024-01-16T03:11:46;15.23;;;5.00;;
73100;SDS011;61288;53.446;-2.266;2024-01-16T03:14:12;10.70;;;4.22;;
73100;SDS011;61288;53.446;-2.266;2024-01-16T03:16:39;14.52;;;5.28;;
73100;SDS011;61288;53.446;-2.266;2024-01-16T03:19:05;13.63;;;4.75;;
73100;SDS011;61288;53.446;-2.266;2024-01-16T03:21:30;12.50;;;4.95;;
73100;SDS011;61288;53.446;-2.266;2024-01-16T03:23:56;12.88;;;4.00;;
73100;SDS011;61288;53.446;-2.266;2024-01-16T03:26:21;15.32;;;5.60;;
73100;SDS011;61288;53.446;-2.266;2024-01-16T03:28:47;14.90;;;5.53;;
73100;SDS011;61288;53.446;-2.266;2024-01-16T03:31:13;14.27;;;4.75;;
73100;SDS011;61288;53.446;-2.266;2024-01-16T03:33:39;14.00;;;4.80;;
73100;SDS011;61288;53.446;-2.266;2024-01-16T03:36:07;16.05;;;4.53;;
73100;SDS011;61288;53.446;-2.266;2024-01-16T03:38:39;12.70;;;4.22;;
73100;SDS011;61288;53.446;-2.266;2024-01-16T03:41:05;11.77;;;4.05;;
73100;SDS011;61288;53.446;-2.266;2024-01-16T03:43:35;15.25;;;4.60;;
73100;SDS011;61288;53.446;-2.266;2024-01-16T03:46:00;15.48;;;5.03;;
73100;SDS011;61288;53.446;-2.266;2024-01-16T03:48:26;13.85;;;4.47;;
73100;SDS011;61288;53.446;-2.266;2024-01-16T03:50:51;12.63;;;4.28;;
73100;SDS011;61288;53.446;-2.266;2024-01-16T03:53:19;10.75;;;3.75;;
73100;SDS011;61288;53.446;-2.266;2024-01-16T03:55:44;13.98;;;4.10;;
73100;SDS011;61288;53.446;-2.266;2024-01-16T03:58:09;13.57;;;3.72;;
73100;SDS011;61288;53.446;-2.266;2024-01-16T04:00:35;12.55;;;4.38;;
73100;SDS011;61288;53.446;-2.266;2024-01-16T04:03:00;14.00;;;4.90;;
73100;SDS011;61288;53.446;-2.266;2024-01-16T04:05:26;10.60;;;3.83;;
73100;SDS011;61288;53.446;-2.266;2024-01-16T04:07:51;14.90;;;4.40;;
73100;SDS011;61288;53.446;-2.266;2024-01-16T04:10:17;11.30;;;4.38;;
73100;SDS011;61288;53.446;-2.266;2024-01-16T04:12:43;10.65;;;4.00;;
73100;SDS011;61288;53.446;-2.266;2024-01-16T04:15:08;12.57;;;3.97;;
73100;SDS011;61288;53.446;-2.266;2024-01-16T04:17:34;10.60;;;4.05;;
73100;SDS011;61288;53.446;-2.266;2024-01-16T04:19:59;11.55;;;4.05;;
73100;SDS011;61288;53.446;-2.266;2024-01-16T04:22:25;9.98;;;3.85;;
73100;SDS011;61288;53.446;-2.266;2024-01-16T04:24:50;12.43;;;4.10;;
73100;SDS011;61288;53.446;-2.266;2024-01-16T04:27:16;12.30;;;3.88;;
73100;SDS011;61288;53.446;-2.266;2024-01-16T04:29:42;12.13;;;4.25;;
73100;SDS011;61288;53.446;-2.266;2024-01-16T04:32:08;11.48;;;4.22;;
73100;SDS011;61288;53.446;-2.266;2024-01-16T04:34:34;8.27;;;3.42;;
73100;SDS011;61288;53.446;-2.266;2024-01-16T04:36:59;11.02;;;3.97;;
73100;SDS011;61288;53.446;-2.266;2024-01-16T04:39:25;12.55;;;3.95;;
73100;SDS011;61288;53.446;-2.266;2024-01-16T04:41:50;13.48;;;4.80;;
73100;SDS011;61288;53.446;-2.266;2024-01-16T04:44:17;11.40;;;3.83;;
73100;SDS011;61288;53.446;-2.266;2024-01-16T04:46:42;11.43;;;3.55;;
73100;SDS011;61288;53.446;-2.266;2024-01-16T04:49:08;12.57;;;3.97;;
73100;SDS011;61288;53.446;-2.266;2024-01-16T04:51:33;11.93;;;4.07;;
73100;SDS011;61288;53.446;-2.266;2024-01-16T04:53:59;10.93;;;3.67;;
73100;SDS011;61288;53.446;-2.266;2024-01-16T04:56:25;11.20;;;4.05;;
73100;SDS011;61288;53.446;-2.266;2024-01-16T04:58:51;10.85;;;3.95;;
73100;SDS011;61288;53.446;-2.266;2024-01-16T05:01:17;9.80;;;3.47;;
73100;SDS011;61288;53.446;-2.266;2024-01-16T05:03:43;12.70;;;4.07;;
73100;SDS011;61288;53.446;-2.266;2024-01-16T05:06:12;10.27;;;3.58;;
73100;SDS011;61288;53.446;-2.266;2024-01-16T05:08:39;10.27;;;3.67;;
73100;SDS011;61288;53.446;-2.266;2024-01-16T05:11:05;10.38;;;3.65;;
73100;SDS011;61288;53.446;-2.266;2024-01-16T05:13:31;10.30;;;3.58;;
73100;SDS011;61288;53.446;-2.266;2024-01-16T05:15:56;9.05;;;3.47;;
73100;SDS011;61288;53.446;-2.266;2024-01-16T05:18:21;10.63;;;3.50;;
73100;SDS011;61288;53.446;-2.266;2024-01-16T05:20:47;11.77;;;3.60;;
73100;SDS011;61288;53.446;-2.266;2024-01-16T05:23:13;11.23;;;3.15;;
73100;SDS011;61288;53.446;-2.266;2024-01-16T05:25:38;10.77;;;3.63;;
73100;SDS011;61288;53.446;-2.266;2024-01-16T05:28:04;15.73;;;3.97;;
73100;SDS011;61288;53.446;-2.266;2024-01-16T05:30:29;9.55;;;3.15;;
73100;SDS011;61288;53.446;-2.266;2024-01-16T05:32:55;11.63;;;3.47;;
73100;SDS011;61288;53.446;-2.266;2024-01-16T05:35:21;8.27;;;3.13;;
73100;SDS011;61288;53.446;-2.266;2024-01-16T05:37:46;10.05;;;3.38;;
73100;SDS011;61288;53.446;-2.266;2024-01-16T05:40:13;11.63;;;4.10;;
73100;SDS011;61288;53.446;-2.266;2024-01-16T05:42:38;11.57;;;3.95;;
73100;SDS011;61288;53.446;-2.266;2024-01-16T05:45:04;11.20;;;3.50;;
73100;SDS011;61288;53.446;-2.266;2024-01-16T05:47:30;12.30;;;4.05;;
73100;SDS011;61288;53.446;-2.266;2024-01-16T05:49:55;10.00;;;3.53;;
73100;SDS011;61288;53.446;-2.266;2024-01-16T05:52:22;14.07;;;4.53;;
73100;SDS011;61288;53.446;-2.266;2024-01-16T05:54:48;11.30;;;4.00;;
73100;SDS011;61288;53.446;-2.266;2024-01-16T05:57:14;12.35;;;3.78;;
73100;SDS011;61288;53.446;-2.266;2024-01-16T05:59:40;13.63;;;4.35;;
73100;SDS011;61288;53.446;-2.266;2024-01-16T06:02:05;12.05;;;4.40;;
73100;SDS011;61288;53.446;-2.266;2024-01-16T06:04:31;11.90;;;4.57;;
73100;SDS011;61288;53.446;-2.266;2024-01-16T06:06:56;14.48;;;4.35;;
73100;SDS011;61288;53.446;-2.266;2024-01-16T06:09:22;14.73;;;4.53;;
73100;SDS011;61288;53.446;-2.266;2024-01-16T06:11:47;11.00;;;3.90;;
73100;SDS011;61288;53.446;-2.266;2024-01-16T06:14:13;12.85;;;4.35;;
73100;SDS011;61288;53.446;-2.266;2024-01-16T06:16:38;11.85;;;4.05;;
73100;SDS011;61288;53.446;-2.266;2024-01-16T06:19:04;14.20;;;3.85;;
73100;SDS011;61288;53.446;-2.266;2024-01-16T06:21:30;12.73;;;4.38;;
73100;SDS011;61288;53.446;-2.266;2024-01-16T06:23:56;13.80;;;4.20;;
73100;SDS011;61288;53.446;-2.266;2024-01-16T06:26:22;13.10;;;4.22;;
73100;SDS011;61288;53.446;-2.266;2024-01-16T06:28:47;11.95;;;3.85;;
73100;SDS011;61288;53.446;-2.266;2024-01-16T06:31:13;9.20;;;3.40;;
73100;SDS011;61288;53.446;-2.266;2024-01-16T06:33:38;12.05;;;3.45;;
73100;SDS011;61288;53.446;-2.266;2024-01-16T06:36:04;15.45;;;4.57;;
73100;SDS011;61288;53.446;-2.266;2024-01-16T06:38:30;9.85;;;3.70;;
73100;SDS011;61288;53.446;-2.266;2024-01-16T06:40:56;12.77;;;4.00;;
73100;SDS011;61288;53.446;-2.266;2024-01-16T06:43:22;12.32;;;3.70;;
73100;SDS011;61288;53.446;-2.266;2024-01-16T06:45:47;11.50;;;3.72;;
73100;SDS011;61288;53.446;-2.266;2024-01-16T06:48:13;10.27;;;3.50;;
73100;SDS011;61288;53.446;-2.266;2024-01-16T06:50:38;11.10;;;3.67;;
73100;SDS011;61288;53.446;-2.266;2024-01-16T06:53:04;11.95;;;4.32;;
73100;SDS011;61288;53.446;-2.266;2024-01-16T06:55:29;12.50;;;4.25;;
73100;SDS011;61288;53.446;-2.266;2024-01-16T06:57:55;13.35;;;3.83;;
73100;SDS011;61288;53.446;-2.266;2024-01-16T07:00:20;14.93;;;4.10;;
73100;SDS011;61288;53.446;-2.266;2024-01-16T07:02:48;12.20;;;3.97;;
73100;SDS011;61288;53.446;-2.266;2024-01-16T07:05:14;14.38;;;4.05;;
73100;SDS011;61288;53.446;-2.266;2024-01-16T07:07:39;10.88;;;3.60;;
73100;SDS011;61288;53.446;-2.266;2024-01-16T07:10:05;14.40;;;4.18;;
73100;SDS011;61288;53.446;-2.266;2024-01-16T07:12:34;12.50;;;3.95;;
73100;SDS011;61288;53.446;-2.266;2024-01-16T07:15:00;11.13;;;3.90;;
73100;SDS011;61288;53.446;-2.266;2024-01-16T07:17:25;13.43;;;4.30;;
73100;SDS011;61288;53.446;-2.266;2024-01-16T07:19:51;12.50;;;4.50;;
73100;SDS011;61288;53.446;-2.266;2024-01-16T07:22:17;11.07;;;4.45;;
73100;SDS011;61288;53.446;-2.266;2024-01-16T07:24:43;12.35;;;3.95;;
73100;SDS011;61288;53.446;-2.266;2024-01-16T07:27:08;10.13;;;4.53;;
73100;SDS011;61288;53.446;-2.266;2024-01-16T07:29:34;10.57;;;3.95;;
73100;SDS011;61288;53.446;-2.266;2024-01-16T07:31:59;16.40;;;5.05;;
73100;SDS011;61288;53.446;-2.266;2024-01-16T07:34:24;12.07;;;4.50;;
73100;SDS011;61288;53.446;-2.266;2024-01-16T07:36:50;13.38;;;5.35;;
73100;SDS011;61288;53.446;-2.266;2024-01-16T07:39:16;11.55;;;4.35;;
73100;SDS011;61288;53.446;-2.266;2024-01-16T07:41:42;16.52;;;5.78;;
73100;SDS011;61288;53.446;-2.266;2024-01-16T07:44:07;15.52;;;5.55;;
73100;SDS011;61288;53.446;-2.266;2024-01-16T07:46:33;15.98;;;5.50;;
73100;SDS011;61288;53.446;-2.266;2024-01-16T07:48:58;13.80;;;4.97;;
73100;SDS011;61288;53.446;-2.266;2024-01-16T07:51:23;13.30;;;4.47;;
73100;SDS011;61288;53.446;-2.266;2024-01-16T07:54:03;12.30;;;4.78;;
73100;SDS011;61288;53.446;-2.266;2024-01-16T07:56:30;13.13;;;4.80;;
73100;SDS011;61288;53.446;-2.266;2024-01-16T07:58:56;14.23;;;5.10;;
73100;SDS011;61288;53.446;-2.266;2024-01-16T08:01:21;15.10;;;5.15;;
73100;SDS011;61288;53.446;-2.266;2024-01-16T08:03:47;11.80;;;4.28;;
73100;SDS011;61288;53.446;-2.266;2024-01-16T08:06:13;13.80;;;4.50;;
73100;SDS011;61288;53.446;-2.266;2024-01-16T08:08:39;11.23;;;4.00;;
73100;SDS011;61288;53.446;-2.266;2024-01-16T08:11:04;10.13;;;3.63;;
73100;SDS011;61288;53.446;-2.266;2024-01-16T08:13:30;13.10;;;3.83;;
73100;SDS011;61288;53.446;-2.266;2024-01-16T08:15:55;10.13;;;3.88;;
73100;SDS011;61288;53.446;-2.266;2024-01-16T08:18:20;7.82;;;3.15;;
73100;SDS011;61288;53.446;-2.266;2024-01-16T08:20:46;11.27;;;3.47;;
73100;SDS011;61288;53.446;-2.266;2024-01-16T08:23:11;11.23;;;3.70;;
73100;SDS011;61288;53.446;-2.266;2024-01-16T08:25:37;14.82;;;3.08;;
73100;SDS011;61288;53.446;-2.266;2024-01-16T08:28:03;10.43;;;3.10;;
73100;SDS011;61288;53.446;-2.266;2024-01-16T08:30:31;8.80;;;2.90;;
73100;SDS011;61288;53.446;-2.266;2024-01-16T08:32:57;11.52;;;2.95;;
73100;SDS011;61288;53.446;-2.266;2024-01-16T08:35:22;9.23;;;2.47;;
73100;SDS011;61288;53.446;-2.266;2024-01-16T08:37:48;11.57;;;2.85;;
73100;SDS011;61288;53.446;-2.266;2024-01-16T08:40:15;13.07;;;2.75;;
73100;SDS011;61288;53.446;-2.266;2024-01-16T08:42:40;9.80;;;2.70;;
73100;SDS011;61288;53.446;-2.266;2024-01-16T08:45:06;9.57;;;2.70;;
73100;SDS011;61288;53.446;-2.266;2024-01-16T08:47:32;10.18;;;3.17;;
73100;SDS011;61288;53.446;-2.266;2024-01-16T08:49:57;10.30;;;2.85;;
73100;SDS011;61288;53.446;-2.266;2024-01-16T08:52:23;9.00;;;2.50;;
73100;SDS011;61288;53.446;-2.266;2024-01-16T08:54:49;7.82;;;2.50;;
73100;SDS011;61288;53.446;-2.266;2024-01-16T08:57:14;7.28;;;2.45;;
73100;SDS011;61288;53.446;-2.266;2024-01-16T08:59:41;12.80;;;2.92;;
73100;SDS011;61288;53.446;-2.266;2024-01-16T09:02:07;9.23;;;2.70;;
73100;SDS011;61288;53.446;-2.266;2024-01-16T09:04:32;8.18;;;2.53;;
73100;SDS011;61288;53.446;-2.266;2024-01-16T09:06:59;9.32;;;3.22;;
73100;SDS011;61288;53.446;-2.266;2024-01-16T09:09:24;7.88;;;2.53;;
73100;SDS011;61288;53.446;-2.266;2024-01-16T09:11:50;12.18;;;2.90;;
73100;SDS011;61288;53.446;-2.266;2024-01-16T09:14:15;9.82;;;3.17;;
73100;SDS011;61288;53.446;-2.266;2024-01-16T09:16:41;15.13;;;3.00;;
73100;SDS011;61288;53.446;-2.266;2024-01-16T09:19:07;9.95;;;3.97;;
73100;SDS011;61288;53.446;-2.266;2024-01-16T09:21:34;7.50;;;3.05;;
73100;SDS011;61288;53.446;-2.266;2024-01-16T09:24:01;10.55;;;3.30;;
73100;SDS011;61288;53.446;-2.266;2024-01-16T09:26:27;12.18;;;2.83;;
73100;SDS011;61288;53.446;-2.266;2024-01-16T09:28:53;8.77;;;2.92;;
73100;SDS011;61288;53.446;-2.266;2024-01-16T09:31:18;8.40;;;2.95;;
73100;SDS011;61288;53.446;-2.266;2024-01-16T09:33:44;9.32;;;2.95;;
73100;SDS011;61288;53.446;-2.266;2024-01-16T09:36:09;12.35;;;3.03;;
73100;SDS011;61288;53.446;-2.266;2024-01-16T09:38:35;8.95;;;3.33;;
73100;SDS011;61288;53.446;-2.266;2024-01-16T09:41:01;9.45;;;3.30;;
73100;SDS011;61288;53.446;-2.266;2024-01-16T09:43:28;8.32;;;2.83;;
73100;SDS011;61288;53.446;-2.266;2024-01-16T09:45:54;9.93;;;3.00;;
73100;SDS011;61288;53.446;-2.266;2024-01-16T09:48:20;10.27;;;2.92;;
73100;SDS011;61288;53.446;-2.266;2024-01-16T09:50:46;10.63;;;2.72;;
73100;SDS011;61288;53.446;-2.266;2024-01-16T09:53:12;12.63;;;3.20;;
73100;SDS011;61288;53.446;-2.266;2024-01-16T09:55:37;9.05;;;2.50;;
73100;SDS011;61288;53.446;-2.266;2024-01-16T09:58:03;14.27;;;3.60;;
73100;SDS011;61288;53.446;-2.266;2024-01-16T10:00:31;10.10;;;2.88;;
73100;SDS011;61288;53.446;-2.266;2024-01-16T10:02:58;8.52;;;2.92;;
73100;SDS011;61288;53.446;-2.266;2024-01-16T10:05:24;11.85;;;2.70;;
73100;SDS011;61288;53.446;-2.266;2024-01-16T10:07:50;8.80;;;3.22;;
73100;SDS011;61288;53.446;-2.266;2024-01-16T10:10:17;10.95;;;2.70;;
73100;SDS011;61288;53.446;-2.266;2024-01-16T10:12:43;11.63;;;2.92;;
73100;SDS011;61288;53.446;-2.266;2024-01-16T10:15:09;10.45;;;2.90;;
73100;SDS011;61288;53.446;-2.266;2024-01-16T10:17:39;7.32;;;2.45;;
73100;SDS011;61288;53.446;-2.266;2024-01-16T10:20:06;9.40;;;2.38;;
73100;SDS011;61288;53.446;-2.266;2024-01-16T10:22:38;6.68;;;1.90;;
73100;SDS011;61288;53.446;-2.266;2024-01-16T10:25:12;7.88;;;2.65;;
73100;SDS011;61288;53.446;-2.266;2024-01-16T10:27:41;10.20;;;2.67;;
73100;SDS011;61288;53.446;-2.266;2024-01-16T10:30:08;7.60;;;2.47;;
73100;SDS011;61288;53.446;-2.266;2024-01-16T10:32:38;8.40;;;2.33;;
73100;SDS011;61288;53.446;-2.266;2024-01-16T10:35:09;8.95;;;2.17;;
73100;SDS011;61288;53.446;-2.266;2024-01-16T10:40:10;5.20;;;1.80;;
73100;SDS011;61288;53.446;-2.266;2024-01-16T10:42:39;8.82;;;2.40;;
73100;SDS011;61288;53.446;-2.266;2024-01-16T10:45:05;8.77;;;2.17;;
73100;SDS011;61288;53.446;-2.266;2024-01-16T10:47:31;6.18;;;2.10;;
73100;SDS011;61288;53.446;-2.266;2024-01-16T10:50:00;8.00;;;2.00;;
73100;SDS011;61288;53.446;-2.266;2024-01-16T10:52:27;8.52;;;2.10;;
73100;SDS011;61288;53.446;-2.266;2024-01-16T10:54:53;6.35;;;2.20;;
73100;SDS011;61288;53.446;-2.266;2024-01-16T10:57:22;6.15;;;2.10;;
73100;SDS011;61288;53.446;-2.266;2024-01-16T11:00:00;9.00;;;2.47;;
73100;SDS011;61288;53.446;-2.266;2024-01-16T11:02:38;7.53;;;2.40;;
73100;SDS011;61288;53.446;-2.266;2024-01-16T11:05:12;5.35;;;2.10;;
73100;SDS011;61288;53.446;-2.266;2024-01-16T11:07:38;7.82;;;2.45;;
73100;SDS011;61288;53.446;-2.266;2024-01-16T11:10:06;5.18;;;1.98;;
73100;SDS011;61288;53.446;-2.266;2024-01-16T11:12:33;10.13;;;2.42;;
73100;SDS011;61288;53.446;-2.266;2024-01-16T11:15:00;6.10;;;2.05;;
73100;SDS011;61288;53.446;-2.266;2024-01-16T11:17:30;10.68;;;2.60;;
73100;SDS011;61288;53.446;-2.266;2024-01-16T11:19:57;7.25;;;2.20;;
73100;SDS011;61288;53.446;-2.266;2024-01-16T11:22:23;8.68;;;2.67;;
73100;SDS011;61288;53.446;-2.266;2024-01-16T11:27:35;8.75;;;2.13;;
73100;SDS011;61288;53.446;-2.266;2024-01-16T11:30:03;6.68;;;1.88;;
73100;SDS011;61288;53.446;-2.266;2024-01-16T11:32:36;6.95;;;2.03;;
73100;SDS011;61288;53.446;-2.266;2024-01-16T11:35:06;7.40;;;2.00;;
73100;SDS011;61288;53.446;-2.266;2024-01-16T11:37:32;7.72;;;2.17;;
73100;SDS011;61288;53.446;-2.266;2024-01-16T11:40:20;6.10;;;1.90;;
73100;SDS011;61288;53.446;-2.266;2024-01-16T11:42:50;7.75;;;1.70;;
73100;SDS011;61288;53.446;-2.266;2024-01-16T11:48:13;4.90;;;1.73;;
73100;SDS011;61288;53.446;-2.266;2024-01-16T11:50:40;5.90;;;1.90;;
73100;SDS011;61288;53.446;-2.266;2024-01-16T11:53:06;7.22;;;2.30;;
73100;SDS011;61288;53.446;-2.266;2024-01-16T11:55:36;9.43;;;1.95;;
73100;SDS011;61288;53.446;-2.266;2024-01-16T11:59:26;6.85;;;1.80;;
73100;SDS011;61288;53.446;-2.266;2024-01-16T12:01:41;9.15;;;1.98;;
73100;SDS011;61288;53.446;-2.266;2024-01-16T12:04:10;5.45;;;1.80;;
73100;SDS011;61288;53.446;-2.266;2024-01-16T12:06:36;6.50;;;1.70;;
73100;SDS011;61288;53.446;-2.266;2024-01-16T12:09:15;5.57;;;1.73;;
73100;SDS011;61288;53.446;-2.266;2024-01-16T12:11:46;6.10;;;2.10;;
73100;SDS011;61288;53.446;-2.266;2024-01-16T12:14:27;8.55;;;2.20;;
73100;SDS011;61288;53.446;-2.266;2024-01-16T12:19:39;6.60;;;1.88;;
73100;SDS011;61288;53.446;-2.266;2024-01-16T12:22:09;8.05;;;2.10;;
73100;SDS011;61288;53.446;-2.266;2024-01-16T12:24:35;8.00;;;2.00;;
73100;SDS011;61288;53.446;-2.266;2024-01-16T12:27:02;8.60;;;2.22;;
73100;SDS011;61288;53.446;-2.266;2024-01-16T12:29:29;9.68;;;2.33;;
73100;SDS011;61288;53.446;-2.266;2024-01-16T12:32:09;9.45;;;2.20;;
73100;SDS011;61288;53.446;-2.266;2024-01-16T12:34:43;5.75;;;1.90;;
73100;SDS011;61288;53.446;-2.266;2024-01-16T12:37:13;6.97;;;2.30;;
73100;SDS011;61288;53.446;-2.266;2024-01-16T12:39:39;7.53;;;1.88;;
73100;SDS011;61288;53.446;-2.266;2024-01-16T12:42:06;6.80;;;2.10;;
73100;SDS011;61288;53.446;-2.266;2024-01-16T12:44:35;10.35;;;2.20;;
73100;SDS011;61288;53.446;-2.266;2024-01-16T12:47:01;7.65;;;1.92;;
73100;SDS011;61288;53.446;-2.266;2024-01-16T12:49:27;5.25;;;1.90;;
73100;SDS011;61288;53.446;-2.266;2024-01-16T12:52:14;6.57;;;2.00;;
73100;SDS011;61288;53.446;-2.266;2024-01-16T12:54:46;6.25;;;1.85;;
73100;SDS011;61288;53.446;-2.266;2024-01-16T12:57:19;11.43;;;2.13;;
73100;SDS011;61288;53.446;-2.266;2024-01-16T12:59:45;6.50;;;1.90;;
73100;SDS011;61288;53.446;-2.266;2024-01-16T13:02:25;8.18;;;1.85;;
73100;SDS011;61288;53.446;-2.266;2024-01-16T13:04:57;4.95;;;1.70;;
73100;SDS011;61288;53.446;-2.266;2024-01-16T13:07:25;9.55;;;2.17;;
73100;SDS011;61288;53.446;-2.266;2024-01-16T13:10:25;5.28;;;1.80;;
73100;SDS011;61288;53.446;-2.266;2024-01-16T13:12:44;7.57;;;1.95;;
73100;SDS011;61288;53.446;-2.266;2024-01-16T13:15:10;6.88;;;2.05;;
73100;SDS011;61288;53.446;-2.266;2024-01-16T13:17:41;6.68;;;1.80;;
73100;SDS011;61288;53.446;-2.266;2024-01-16T13:20:07;6.95;;;2.05;;
73100;SDS011;61288;53.446;-2.266;2024-01-16T13:22:35;5.93;;;1.67;;
73100;SDS011;61288;53.446;-2.266;2024-01-16T13:25:01;4.90;;;1.67;;
73100;SDS011;61288;53.446;-2.266;2024-01-16T13:27:26;5.95;;;1.70;;
73100;SDS011;61288;53.446;-2.266;2024-01-16T13:29:54;6.28;;;1.92;;
73100;SDS011;61288;53.446;-2.266;2024-01-16T13:32:19;7.65;;;1.80;;
73100;SDS011;61288;53.446;-2.266;2024-01-16T13:34:45;3.90;;;1.60;;
73100;SDS011;61288;53.446;-2.266;2024-01-16T13:37:16;7.22;;;2.03;;
73100;SDS011;61288;53.446;-2.266;2024-01-16T13:39:46;7.13;;;1.80;;
73100;SDS011;61288;53.446;-2.266;2024-01-16T13:42:12;8.00;;;2.00;;
73100;SDS011;61288;53.446;-2.266;2024-01-16T13:44:37;5.38;;;1.98;;
73100;SDS011;61288;53.446;-2.266;2024-01-16T13:47:03;6.78;;;1.83;;
73100;SDS011;61288;53.446;-2.266;2024-01-16T13:49:29;6.63;;;2.20;;
73100;SDS011;61288;53.446;-2.266;2024-01-16T13:51:55;7.03;;;2.08;;
73100;SDS011;61288;53.446;-2.266;2024-01-16T13:54:20;7.10;;;2.22;;
73100;SDS011;61288;53.446;-2.266;2024-01-16T13:56:46;7.57;;;2.20;;
73100;SDS011;61288;53.446;-2.266;2024-01-16T13:59:12;7.78;;;1.90;;
73100;SDS011;61288;53.446;-2.266;2024-01-16T14:01:37;5.93;;;2.08;;
73100;SDS011;61288;53.446;-2.266;2024-01-16T14:04:03;10.30;;;2.38;;
73100;SDS011;61288;53.446;-2.266;2024-01-16T14:06:30;6.63;;;2.05;;
73100;SDS011;61288;53.446;-2.266;2024-01-16T14:08:55;9.27;;;2.25;;
73100;SDS011;61288;53.446;-2.266;2024-01-16T14:11:21;8.13;;;2.05;;
73100;SDS011;61288;53.446;-2.266;2024-01-16T14:13:46;5.88;;;1.58;;
73100;SDS011;61288;53.446;-2.266;2024-01-16T14:16:11;9.90;;;2.08;;
73100;SDS011;61288;53.446;-2.266;2024-01-16T14:18:37;7.22;;;1.77;;
73100;SDS011;61288;53.446;-2.266;2024-01-16T14:21:02;7.85;;;2.00;;
73100;SDS011;61288;53.446;-2.266;2024-01-16T14:23:29;8.07;;;1.92;;
73100;SDS011;61288;53.446;-2.266;2024-01-16T14:25:55;6.03;;;2.17;;
73100;SDS011;61288;53.446;-2.266;2024-01-16T14:28:20;11.52;;;1.80;;
73100;SDS011;61288;53.446;-2.266;2024-01-16T14:30:51;4.75;;;1.67;;
73100;SDS011;61288;53.446;-2.266;2024-01-16T14:33:17;7.53;;;1.85;;
73100;SDS011;61288;53.446;-2.266;2024-01-16T14:35:42;7.68;;;1.95;;
73100;SDS011;61288;53.446;-2.266;2024-01-16T14:38:09;7.20;;;1.95;;